الصفحة الرئيسية
METAR-TAF:

METAR-TAF

مطار :

أورسك, روسيا

دائرة عرض: 51-04-18N, خط طول: 058-35-48E, ارتفاع: 277 متر

مراقبة الطقس الحالي

تاريخ ووقت الإصدار 1ساعة و 4 دقيقة قبل الساعة 17:00UTC
ريح 8 عقدة من الغرب
درجة الحرارة 19°درجة مئوية
الرطوبة 52%
ضغط 1018 hPa
الرؤية 10 كم أو أكثر
الغيوم لا تقل 1500 م ولا وجود لمزنة ركامية السحاب الأسود

METAR: UWOR 161700Z 28004MPS CAVOK 19/09 Q1018 R25/CLRD65 NOSIG RMK QFE739/0986

زمن: 23:04 (18:04 UTC)

توقعات

تاريخ ووقت الإصدار 1ساعة و 8 دقيقة قبل الساعة 16:56UTC
التوقعات صالحة من16 الساعة 18 UTC إلى 17 الساعة 03 UTC
ريح 6 عقدة من الغرب تتزايد حتى 16 عقدة
الرؤية 10 كم أو أكثر
غيوم متفرقة على ارتفاع 3000 قدم
مؤقت
من 16 الساعة 18 UTC إلى 17 الساعة 03 UTC
ريح 10 عقدة من الغرب

TAF: UWOR 161656Z 1618/1703 26003G08MPS 9999 SCT030 TEMPO 1618/1703 27005MPS

أرصاد الطقس والتوقعات من أكثر من 4000 مطار (تقارير الطقس للمطار METAR والتنبؤ بالطقس بالمطارTAF).

المحطات المتاحة هي النقط الصفراء والحمراء على الخريطة.

حرك المؤشر فوق النقطة لمعرفة اسم المحطة.

ثم انقر لمعرفة أرصاد وتوقعات الطقس.

لتغيير الخارطة: اضغط على الأزرار الخضراء مع رمز الصليب الأسود للتكبير. على الزر الأخضر مع شرطة للتصغير، أو على الأسهم الخضراء للخرائط المجاورة.


METAR-TAF: